createdAt,value
2022-11-16T00:02:13.890Z,65.97
2022-11-16T00:05:16.651Z,61.90
2022-11-16T00:08:19.024Z,67.73
2022-11-16T00:11:21.646Z,60.55
2022-11-16T00:14:26.140Z,66.65
2022-11-16T00:17:28.705Z,71.70
2022-11-16T00:20:31.159Z,72.78
2022-11-16T00:23:38.229Z,69.75
2022-11-16T00:26:41.586Z,68.95
2022-11-16T00:29:45.913Z,63.80
2022-11-16T00:32:48.230Z,76.65
2022-11-16T00:35:51.051Z,70.80
2022-11-16T00:38:54.144Z,65.03
2022-11-16T00:41:57.082Z,65.70
2022-11-16T00:44:59.873Z,70.05
2022-11-16T00:48:02.746Z,71.93
2022-11-16T00:51:06.052Z,67.88
2022-11-16T00:54:09.443Z,65.65
2022-11-16T00:57:12.605Z,62.03
2022-11-16T01:00:16.581Z,65.78
2022-11-16T01:03:19.354Z,65.68
2022-11-16T01:06:23.523Z,63.28
2022-11-16T01:09:26.042Z,72.40
2022-11-16T01:12:28.736Z,70.95
2022-11-16T01:15:31.538Z,68.53
2022-11-16T01:18:34.313Z,68.33
2022-11-16T01:21:36.926Z,68.88
2022-11-16T01:24:39.557Z,64.65
2022-11-16T01:27:43.479Z,69.90
2022-11-16T01:30:52.247Z,66.20
2022-11-16T01:33:55.170Z,62.97
2022-11-16T01:37:04.034Z,72.88
2022-11-16T01:40:10.626Z,69.63
2022-11-16T01:43:23.259Z,69.28
2022-11-16T01:46:28.781Z,67.22
2022-11-16T01:49:36.405Z,71.97
2022-11-16T01:52:45.580Z,66.88
2022-11-16T01:55:49.757Z,73.85
2022-11-16T01:59:17.421Z,74.93
2022-11-16T02:02:21.038Z,78.10
2022-11-16T02:05:35.131Z,79.78
2022-11-16T02:09:13.117Z,77.68
2022-11-16T02:12:48.194Z,79.10
2022-11-16T02:16:12.369Z,79.07
2022-11-16T02:19:59.294Z,75.72
2022-11-16T02:23:34.210Z,76.87
2022-11-16T02:26:47.994Z,78.07
2022-11-16T02:29:53.785Z,79.65
2022-11-16T02:33:04.388Z,80.95
2022-11-16T02:36:12.483Z,66.53
2022-11-16T02:39:19.474Z,77.80
2022-11-16T02:42:29.997Z,78.43
2022-11-16T02:45:36.440Z,65.00
2022-11-16T02:48:47.027Z,72.78
2022-11-16T02:51:52.144Z,78.88
2022-11-16T02:54:56.155Z,73.43
2022-11-16T02:58:05.650Z,76.25
2022-11-16T03:01:15.402Z,83.30
2022-11-16T03:04:28.276Z,79.70
2022-11-16T03:07:37.589Z,73.55
2022-11-16T03:11:01.688Z,74.20
2022-11-16T03:14:12.180Z,77.22
2022-11-16T03:17:24.717Z,74.77
2022-11-16T03:20:30.598Z,75.38
2022-11-16T03:23:34.205Z,80.07
2022-11-16T03:26:54.700Z,89.90
2022-11-16T03:30:23.780Z,85.60
2022-11-16T03:33:37.917Z,76.07
2022-11-16T03:36:43.542Z,85.97
2022-11-16T03:39:48.002Z,72.28
2022-11-16T03:42:52.150Z,83.50
2022-11-16T03:45:55.442Z,82.35
2022-11-16T03:48:59.512Z,82.87
2022-11-16T03:52:06.085Z,77.38
2022-11-16T03:55:09.684Z,80.40
2022-11-16T03:58:12.540Z,77.90
2022-11-16T04:01:15.211Z,80.50
2022-11-16T04:04:36.837Z,93.85
2022-11-16T04:07:58.693Z,105.38
2022-11-16T04:11:19.870Z,93.38
2022-11-16T04:14:43.831Z,85.85
2022-11-16T04:18:08.338Z,76.38
2022-11-16T04:21:47.695Z,77.80
2022-11-16T04:24:59.128Z,78.28
2022-11-16T04:28:16.186Z,73.90
2022-11-16T04:31:59.453Z,77.67
2022-11-16T04:35:21.700Z,76.18
2022-11-16T04:38:24.312Z,78.78
2022-11-16T04:41:46.122Z,81.38
2022-11-16T04:45:07.687Z,78.55
2022-11-16T04:48:19.661Z,78.10
2022-11-16T04:51:22.814Z,83.38
2022-11-16T04:54:25.338Z,86.07
2022-11-16T04:57:28.604Z,88.80
2022-11-16T05:00:32.266Z,86.00
2022-11-16T05:03:35.841Z,100.23
2022-11-16T05:06:38.657Z,86.93
2022-11-16T05:09:49.511Z,80.80
2022-11-16T05:12:52.668Z,87.82
2022-11-16T05:15:55.805Z,88.00
2022-11-16T05:19:17.626Z,103.65
2022-11-16T05:22:20.703Z,99.90
2022-11-16T05:25:25.589Z,89.60
2022-11-16T05:28:29.226Z,99.72
2022-11-16T05:31:36.340Z,76.07
2022-11-16T05:34:44.235Z,80.70
2022-11-16T05:37:47.059Z,83.57
2022-11-16T05:40:49.931Z,84.60
2022-11-16T05:43:55.370Z,99.75
2022-11-16T05:46:58.435Z,98.78
2022-11-16T05:50:01.133Z,86.00
2022-11-16T05:53:09.119Z,89.85
2022-11-16T05:56:14.336Z,82.40
2022-11-16T05:59:20.362Z,83.40
2022-11-16T06:02:25.649Z,84.47
2022-11-16T06:05:28.421Z,91.90
2022-11-16T06:08:32.729Z,85.75
2022-11-16T06:11:39.262Z,91.93
2022-11-16T06:14:42.590Z,89.70
2022-11-16T06:17:45.449Z,88.40
2022-11-16T06:20:48.965Z,80.88
2022-11-16T06:23:52.818Z,81.82
2022-11-16T06:26:55.318Z,88.97
2022-11-16T06:29:58.345Z,76.85
2022-11-16T06:33:00.907Z,83.93
2022-11-16T06:36:03.919Z,92.97
2022-11-16T06:39:07.289Z,82.63
2022-11-16T06:42:12.642Z,84.90
2022-11-16T06:45:16.188Z,96.10
2022-11-16T06:48:25.594Z,83.32
2022-11-16T06:51:28.149Z,78.00
2022-11-16T06:54:31.062Z,78.32
2022-11-16T06:57:35.747Z,77.70
2022-11-16T07:00:40.279Z,76.25
2022-11-16T07:03:45.390Z,75.10
2022-11-16T07:06:50.402Z,69.30
2022-11-16T07:09:55.593Z,74.25
2022-11-16T07:13:04.566Z,66.70
2022-11-16T07:16:10.130Z,73.50
2022-11-16T07:19:15.931Z,66.63
2022-11-16T07:22:19.170Z,69.97
2022-11-16T07:25:22.068Z,69.50
2022-11-16T07:28:24.745Z,67.70
2022-11-16T07:31:27.876Z,61.95
2022-11-16T07:35:08.902Z,66.03
2022-11-16T07:38:17.868Z,64.50
2022-11-16T07:41:21.761Z,64.68
2022-11-16T07:44:44.411Z,67.35
2022-11-16T07:47:47.971Z,67.97
2022-11-16T07:51:06.329Z,75.18
2022-11-16T07:54:15.553Z,64.88
2022-11-16T07:57:18.184Z,72.47
2022-11-16T08:00:21.441Z,69.27
2022-11-16T08:03:34.882Z,74.35
2022-11-16T08:06:40.499Z,75.85
2022-11-16T08:09:43.553Z,78.63
2022-11-16T08:12:50.268Z,67.38
2022-11-16T08:15:54.907Z,72.60
2022-11-16T08:18:58.525Z,61.03
2022-11-16T08:22:01.165Z,57.63
2022-11-16T08:25:07.017Z,61.85
2022-11-16T08:28:09.658Z,64.50
2022-11-16T08:31:19.267Z,71.03
2022-11-16T08:34:24.752Z,80.18
2022-11-16T08:37:33.938Z,110.15
2022-11-16T08:40:37.200Z,139.13
2022-11-16T08:43:40.659Z,95.82
2022-11-16T08:46:43.967Z,71.95
2022-11-16T08:50:03.585Z,71.28
2022-11-16T08:53:06.621Z,61.97
2022-11-16T08:56:13.564Z,64.90
2022-11-16T08:59:18.419Z,68.15
2022-11-16T09:02:27.188Z,62.63
2022-11-16T09:05:30.651Z,62.38
2022-11-16T09:08:34.699Z,66.70
2022-11-16T09:11:37.916Z,53.27
2022-11-16T09:14:40.906Z,60.30
2022-11-16T09:17:43.507Z,63.00
2022-11-16T09:20:46.370Z,57.08
2022-11-16T09:23:49.755Z,53.78
2022-11-16T09:26:52.404Z,55.53
2022-11-16T09:29:54.866Z,54.67
2022-11-16T09:33:01.214Z,58.80
2022-11-16T09:36:09.120Z,47.28
2022-11-16T09:39:30.253Z,51.72
2022-11-16T09:43:01.257Z,53.93
2022-11-16T09:46:25.329Z,51.92
2022-11-16T09:49:35.908Z,48.08
2022-11-16T09:52:43.256Z,60.28
2022-11-16T09:56:00.913Z,58.42
2022-11-16T09:59:15.034Z,53.13
2022-11-16T10:02:27.443Z,45.97
2022-11-16T10:05:43.765Z,54.17
2022-11-16T10:08:49.070Z,51.47
2022-11-16T10:12:09.969Z,52.30
2022-11-16T10:15:28.527Z,47.83
2022-11-16T10:19:03.041Z,47.08
2022-11-16T10:22:43.248Z,53.63
2022-11-16T10:25:52.105Z,42.58
2022-11-16T10:29:25.173Z,46.85
2022-11-16T10:32:36.297Z,44.50
2022-11-16T10:35:43.129Z,53.72
2022-11-16T10:38:46.000Z,49.47
2022-11-16T10:41:51.924Z,55.00
2022-11-16T10:45:06.956Z,50.05
2022-11-16T10:48:22.742Z,60.30
2022-11-16T10:51:25.723Z,51.55
2022-11-16T10:54:28.341Z,54.10
2022-11-16T10:57:55.524Z,50.45
2022-11-16T11:00:59.332Z,51.97
2022-11-16T11:04:16.081Z,56.83
2022-11-16T11:07:30.112Z,61.50
2022-11-16T11:10:38.970Z,62.50
2022-11-16T11:13:41.508Z,57.67
2022-11-16T11:16:44.163Z,63.58
2022-11-16T11:19:48.035Z,57.43
2022-11-16T11:23:02.450Z,61.70
2022-11-16T11:26:05.742Z,60.25
2022-11-16T11:29:24.782Z,62.17
2022-11-16T11:32:35.018Z,61.50
2022-11-16T11:35:38.175Z,73.78
2022-11-16T11:39:03.687Z,56.63
2022-11-16T11:42:21.249Z,65.30
2022-11-16T11:45:57.007Z,64.85
2022-11-16T11:49:06.591Z,52.30
2022-11-16T11:52:19.339Z,54.20
2022-11-16T11:55:22.162Z,63.75
2022-11-16T11:58:34.211Z,72.88
2022-11-16T12:01:47.041Z,61.47
2022-11-16T12:05:10.478Z,57.80
2022-11-16T12:08:48.409Z,57.80
2022-11-16T12:11:57.023Z,51.55
2022-11-16T12:15:16.981Z,64.50
2022-11-16T12:18:41.279Z,73.57
2022-11-16T12:22:05.249Z,73.55
2022-11-16T12:25:34.587Z,54.00
2022-11-16T12:28:51.305Z,51.92
2022-11-16T12:32:15.492Z,50.13
2022-11-16T12:35:47.854Z,45.00
2022-11-16T12:39:13.008Z,55.58
2022-11-16T12:42:24.010Z,57.15
2022-11-16T12:45:46.356Z,51.53
2022-11-16T12:48:57.759Z,47.57
2022-11-16T12:52:11.839Z,51.60
2022-11-16T12:55:34.590Z,45.65
2022-11-16T12:58:59.289Z,43.73
2022-11-16T13:02:21.526Z,50.50
2022-11-16T13:05:49.842Z,50.78
2022-11-16T13:08:52.512Z,50.78
2022-11-16T13:11:58.325Z,48.60
2022-11-16T13:15:03.087Z,52.13
2022-11-16T13:18:11.298Z,184.77
2022-11-16T13:21:20.287Z,98.07
2022-11-16T13:24:48.801Z,91.57
2022-11-16T13:28:00.816Z,59.28
2022-11-16T13:31:38.385Z,50.73
2022-11-16T13:34:41.750Z,48.60
2022-11-16T13:37:46.094Z,61.88
2022-11-16T13:40:48.916Z,57.80
2022-11-16T13:43:51.330Z,74.22
2022-11-16T13:47:06.348Z,63.80
2022-11-16T13:50:19.374Z,65.15
2022-11-16T13:54:43.184Z,66.63
2022-11-16T13:57:33.638Z,62.38
2022-11-16T14:00:40.412Z,52.92
2022-11-16T14:03:43.532Z,57.27
2022-11-16T14:06:46.178Z,62.55
2022-11-16T14:09:49.328Z,58.78
2022-11-16T14:12:53.358Z,58.53
2022-11-16T14:16:22.648Z,70.10
2022-11-16T14:19:47.723Z,74.80
2022-11-16T14:23:00.416Z,80.82
2022-11-16T14:26:02.972Z,77.03
2022-11-16T14:29:20.135Z,82.60
2022-11-16T14:32:36.992Z,102.40
2022-11-16T14:35:52.557Z,113.43
2022-11-16T14:38:55.501Z,209.57
2022-11-16T14:42:03.198Z,232.30
2022-11-16T14:45:11.962Z,124.47
2022-11-16T14:48:25.825Z,101.05
2022-11-16T14:51:35.758Z,108.20
2022-11-16T14:54:46.504Z,136.98
2022-11-16T14:57:49.090Z,118.50
2022-11-16T15:01:04.823Z,112.72
2022-11-16T15:04:09.307Z,108.28
2022-11-16T15:07:14.489Z,104.13
2022-11-16T15:10:24.091Z,105.18
2022-11-16T15:13:27.172Z,101.38
2022-11-16T15:16:29.702Z,129.68
2022-11-16T15:19:32.108Z,84.57
2022-11-16T15:22:42.438Z,93.63
2022-11-16T15:25:56.021Z,87.70
2022-11-16T15:28:59.845Z,94.77
2022-11-16T15:32:02.499Z,94.93
2022-11-16T15:35:05.802Z,102.28
2022-11-16T15:38:26.477Z,109.57
2022-11-16T15:41:29.665Z,103.45
2022-11-16T15:44:33.338Z,110.88
2022-11-16T15:47:37.653Z,105.60
2022-11-16T15:50:40.200Z,120.95
2022-11-16T15:53:48.205Z,108.13
2022-11-16T15:56:53.659Z,97.97
2022-11-16T16:00:00.106Z,101.70
2022-11-16T16:03:06.489Z,107.82
2022-11-16T16:06:15.422Z,95.78
2022-11-16T16:09:34.629Z,112.93
2022-11-16T16:12:47.960Z,116.43
2022-11-16T16:16:11.505Z,94.47
2022-11-16T16:19:35.819Z,88.07
2022-11-16T16:22:38.271Z,100.55
2022-11-16T16:25:42.800Z,97.97
2022-11-16T16:28:48.706Z,95.68
2022-11-16T16:31:51.419Z,142.07
2022-11-16T16:34:56.035Z,145.07
2022-11-16T16:38:01.087Z,98.28
2022-11-16T16:41:05.393Z,104.70
2022-11-16T16:44:15.334Z,111.75
2022-11-16T16:47:20.776Z,115.15
2022-11-16T16:50:23.456Z,108.95
2022-11-16T16:53:25.789Z,117.43
2022-11-16T16:56:28.710Z,171.90
2022-11-16T16:59:31.905Z,148.80
2022-11-16T17:02:37.179Z,111.93
2022-11-16T17:05:39.590Z,124.25
2022-11-16T17:08:42.322Z,120.38
2022-11-16T17:11:47.014Z,127.60
2022-11-16T17:14:52.902Z,119.20
2022-11-16T17:17:57.744Z,102.13
2022-11-16T17:21:08.901Z,111.35
2022-11-16T17:24:11.749Z,117.47
2022-11-16T17:27:14.735Z,130.57
2022-11-16T17:30:17.477Z,131.93
2022-11-16T17:33:20.330Z,116.67
2022-11-16T17:36:23.051Z,114.57
2022-11-16T17:39:26.968Z,114.53
2022-11-16T17:42:29.616Z,105.20
2022-11-16T17:45:33.191Z,111.97
2022-11-16T17:48:36.649Z,124.85
2022-11-16T17:51:39.508Z,115.40
2022-11-16T17:54:42.131Z,105.22
2022-11-16T17:57:45.125Z,132.60
2022-11-16T18:00:49.834Z,159.05
2022-11-16T18:03:52.697Z,117.80
2022-11-16T18:06:56.054Z,119.88
2022-11-16T18:09:59.386Z,120.50
2022-11-16T18:13:02.034Z,114.83
2022-11-16T18:16:12.589Z,98.55
2022-11-16T18:19:17.578Z,119.25
2022-11-16T18:22:20.571Z,98.22
2022-11-16T18:25:24.569Z,89.68
2022-11-16T18:28:27.258Z,101.95
2022-11-16T18:31:32.895Z,118.68
2022-11-16T18:34:35.785Z,113.90
2022-11-16T18:37:38.474Z,105.15
2022-11-16T18:40:41.493Z,122.57
2022-11-16T18:43:55.519Z,89.53
2022-11-16T18:46:58.333Z,105.88
2022-11-16T18:50:01.190Z,104.00
2022-11-16T18:53:04.285Z,116.43
2022-11-16T18:56:08.318Z,98.38
2022-11-16T18:59:11.162Z,96.82
2022-11-16T19:02:14.080Z,117.53
2022-11-16T19:05:17.071Z,104.83
2022-11-16T19:08:20.060Z,109.05
2022-11-16T19:11:24.122Z,94.63
2022-11-16T19:14:26.903Z,109.13
2022-11-16T19:17:30.659Z,90.95
2022-11-16T19:20:33.828Z,100.13
2022-11-16T19:23:42.995Z,95.57
2022-11-16T19:26:45.936Z,104.05
2022-11-16T19:29:50.317Z,100.05
2022-11-16T19:33:00.637Z,82.40
2022-11-16T19:36:08.286Z,82.73
2022-11-16T19:39:11.345Z,83.97
2022-11-16T19:42:14.354Z,98.22
2022-11-16T19:45:17.151Z,97.17
2022-11-16T19:48:20.263Z,86.63
2022-11-16T19:51:28.416Z,92.43
2022-11-16T19:54:31.661Z,83.30
2022-11-16T19:57:34.461Z,84.40
2022-11-16T20:00:37.608Z,76.75
2022-11-16T20:03:41.850Z,76.43
2022-11-16T20:06:44.714Z,68.63
2022-11-16T20:09:53.221Z,65.38
2022-11-16T20:12:57.008Z,88.20
2022-11-16T20:16:01.503Z,86.17
2022-11-16T20:19:06.365Z,70.30
2022-11-16T20:22:09.341Z,76.78
2022-11-16T20:25:13.131Z,68.57
2022-11-16T20:28:15.856Z,73.47
2022-11-16T20:31:21.158Z,68.60
2022-11-16T20:34:24.002Z,61.42
2022-11-16T20:37:26.838Z,69.87
2022-11-16T20:40:29.326Z,72.30
2022-11-16T20:43:32.390Z,88.40
2022-11-16T20:46:37.804Z,82.03
2022-11-16T20:49:40.719Z,88.68
2022-11-16T20:52:47.201Z,71.72
2022-11-16T20:55:53.227Z,65.88
2022-11-16T20:58:56.917Z,60.20
2022-11-16T21:01:59.749Z,64.82
2022-11-16T21:05:02.445Z,70.07
2022-11-16T21:08:05.385Z,60.57
2022-11-16T21:11:54.086Z,54.90
2022-11-16T21:14:56.675Z,58.08
2022-11-16T21:17:59.408Z,59.63
2022-11-16T21:21:04.089Z,53.47
2022-11-16T21:24:10.386Z,58.05
2022-11-16T21:27:12.906Z,58.00
2022-11-16T21:30:15.696Z,53.00
2022-11-16T21:33:18.298Z,60.80
2022-11-16T21:36:26.473Z,62.58
2022-11-16T21:39:29.195Z,72.57
2022-11-16T21:42:31.903Z,69.53
2022-11-16T21:45:35.620Z,71.80
2022-11-16T21:48:38.340Z,61.77
2022-11-16T21:51:40.933Z,61.78
2022-11-16T21:54:50.924Z,66.85
2022-11-16T21:57:53.578Z,83.32
2022-11-16T22:00:57.682Z,75.75
2022-11-16T22:04:18.762Z,67.88
2022-11-16T22:07:36.821Z,58.13
2022-11-16T22:10:42.022Z,57.23
2022-11-16T22:13:44.636Z,59.05
2022-11-16T22:16:47.270Z,61.10
2022-11-16T22:19:49.729Z,70.70
2022-11-16T22:22:52.832Z,56.42
2022-11-16T22:26:00.561Z,54.53
2022-11-16T22:29:03.320Z,66.15
2022-11-16T22:32:05.852Z,55.78
2022-11-16T22:35:09.199Z,57.97
2022-11-16T22:38:11.643Z,69.53
2022-11-16T22:41:14.186Z,56.30
2022-11-16T22:44:16.765Z,57.58
2022-11-16T22:47:19.602Z,47.85
2022-11-16T22:50:24.031Z,92.83
2022-11-16T22:53:26.715Z,71.65
2022-11-16T22:56:31.114Z,68.85
2022-11-16T22:59:33.760Z,61.95
2022-11-16T23:02:36.343Z,56.97
2022-11-16T23:05:38.822Z,49.50
2022-11-16T23:08:41.860Z,51.20
2022-11-16T23:12:02.942Z,50.13
2022-11-16T23:15:24.326Z,47.05
2022-11-16T23:18:26.921Z,52.63
2022-11-16T23:21:48.194Z,48.07
2022-11-16T23:25:09.480Z,37.88
2022-11-16T23:28:16.592Z,40.75
2022-11-16T23:31:19.398Z,34.42
2022-11-16T23:34:22.153Z,36.20
2022-11-16T23:37:24.896Z,43.22
2022-11-16T23:40:33.783Z,39.08
2022-11-16T23:43:54.840Z,41.43
2022-11-16T23:46:57.580Z,38.78
2022-11-16T23:50:00.530Z,32.25
2022-11-16T23:53:03.368Z,37.93
2022-11-16T23:56:06.437Z,39.03
2022-11-16T23:59:08.866Z,39.85
